Time;durP1;ratioP1;P1;durP2;ratioP2;P2;SDS_P1;SDS_P2;PMS_P1;PMS_P2;Temp;Humidity;BMP_temperature;BMP_pressure;BME280_temperature;BME280_humidity;BME280_pressure;Samples;Min_cycle;Max_cycle;Signal;HPM_P1;HPM_P2
2022/05/07 00:01:42;;;;;;;;;5.67;5.67;;;;;;;;4963959;28;45044;-83
2022/05/07 00:04:07;;;;;;;;;7.00;7.00;;;;;;;;4960783;28;45481;-82
2022/05/07 00:06:32;;;;;;;;;10.67;7.00;;;;;;;;4971145;28;45351;-82
2022/05/07 00:08:58;;;;;;;;;4.33;4.33;;;;;;;;4981947;28;45422;-81
2022/05/07 00:11:23;;;;;;;;;11.67;7.67;;;;;;;;4963219;28;44883;-83
2022/05/07 00:13:49;;;;;;;;;8.67;8.00;;;;;;;;4983003;28;45393;-82
2022/05/07 00:19:00;;;;;;;;;7.33;7.33;;;;;;;;4981107;28;45721;-83
2022/05/07 00:21:25;;;;;;;;;9.33;7.33;;;;;;;;4980709;28;45463;-82
2022/05/07 00:23:53;;;;;;;;;6.67;6.67;;;;;;;;4965581;28;45971;-83
2022/05/07 00:26:19;;;;;;;;;10.33;8.67;;;;;;;;4980936;28;45383;-79
2022/05/07 00:28:45;;;;;;;;;6.00;6.00;;;;;;;;4977704;28;46285;-83
2022/05/07 00:31:11;;;;;;;;;11.00;10.00;;;;;;;;4964081;28;45766;-79
2022/05/07 00:33:36;;;;;;;;;13.33;9.00;;;;;;;;4960259;28;45590;-78
2022/05/07 00:36:02;;;;;;;;;11.67;8.67;;;;;;;;4978404;28;45322;-82
2022/05/07 00:38:27;;;;;;;;;13.00;10.33;;;;;;;;4964360;28;46633;-81
2022/05/07 00:40:53;;;;;;;;;10.33;9.00;;;;;;;;4958675;28;45850;-81
2022/05/07 00:43:18;;;;;;;;;10.67;10.00;;;;;;;;4980985;28;45474;-81
2022/05/07 00:45:45;;;;;;;;;8.00;8.00;;;;;;;;4975143;28;45560;-80
2022/05/07 00:48:10;;;;;;;;;12.00;10.67;;;;;;;;4978205;28;45760;-78
2022/05/07 00:53:22;;;;;;;;;9.67;8.67;;;;;;;;4996550;28;45396;-81
2022/05/07 00:55:48;;;;;;;;;13.33;12.00;;;;;;;;4983778;28;45511;-76
2022/05/07 00:58:14;;;;;;;;;16.33;13.33;;;;;;;;4960615;28;47198;-78
2022/05/07 01:00:39;;;;;;;;;12.00;10.33;;;;;;;;4957682;28;45809;-78
2022/05/07 01:03:04;;;;;;;;;10.00;10.00;;;;;;;;4958786;28;45648;-77
2022/05/07 01:05:31;;;;;;;;;9.67;8.67;;;;;;;;4942898;28;46056;-80
2022/05/07 01:07:56;;;;;;;;;9.00;9.00;;;;;;;;4961053;28;46964;-78
2022/05/07 01:10:22;;;;;;;;;10.33;9.33;;;;;;;;4977884;28;45734;-79
2022/05/07 01:12:48;;;;;;;;;10.00;9.33;;;;;;;;4961538;28;45665;-79
2022/05/07 01:15:13;;;;;;;;;12.00;9.00;;;;;;;;4961132;28;46042;-78
2022/05/07 01:17:38;;;;;;;;;13.33;11.67;;;;;;;;4960651;28;46104;-81
2022/05/07 01:20:08;;;;;;;;;12.67;10.00;;;;;;;;4979003;28;45457;-79
2022/05/07 01:22:34;;;;;;;;;10.00;9.67;;;;;;;;4979133;28;45258;-79
2022/05/07 01:25:00;;;;;;;;;11.00;9.00;;;;;;;;4978532;28;45502;-80
2022/05/07 01:27:25;;;;;;;;;9.67;9.67;;;;;;;;4960715;28;47409;-80
2022/05/07 01:29:51;;;;;;;;;10.67;10.00;;;;;;;;4978698;28;45627;-81
2022/05/07 01:32:18;;;;;;;;;14.00;11.67;;;;;;;;4980113;28;45695;-81
2022/05/07 01:34:43;;;;;;;;;14.33;11.00;;;;;;;;4964998;28;45896;-82
2022/05/07 01:37:08;;;;;;;;;12.33;12.00;;;;;;;;4984333;28;45493;-83
2022/05/07 01:39:34;;;;;;;;;12.00;11.00;;;;;;;;4962023;28;45541;-79
2022/05/07 01:41:59;;;;;;;;;14.33;12.00;;;;;;;;4960540;28;45787;-79
2022/05/07 01:44:24;;;;;;;;;14.67;10.00;;;;;;;;4978161;28;45987;-78
2022/05/07 01:49:33;;;;;;;;;11.67;9.67;;;;;;;;4957223;28;45608;-78
2022/05/07 01:51:59;;;;;;;;;17.00;11.33;;;;;;;;4957811;28;46031;-81
2022/05/07 01:54:24;;;;;;;;;11.67;11.33;;;;;;;;4950742;28;46133;-82
2022/05/07 01:56:49;;;;;;;;;14.00;13.00;;;;;;;;4980050;28;45484;-79
2022/05/07 01:59:14;;;;;;;;;14.33;14.33;;;;;;;;4977763;28;45393;-80
2022/05/07 02:01:40;;;;;;;;;10.67;10.67;;;;;;;;4961473;28;45418;-82
2022/05/07 02:04:06;;;;;;;;;15.33;13.00;;;;;;;;4981918;28;45736;-81
2022/05/07 02:06:31;;;;;;;;;13.67;13.00;;;;;;;;4981062;28;46362;-81
2022/05/07 02:08:56;;;;;;;;;13.00;13.00;;;;;;;;4965849;28;45763;-82
2022/05/07 02:11:22;;;;;;;;;11.33;10.00;;;;;;;;4962924;28;45632;-80
2022/05/07 02:13:47;;;;;;;;;15.33;14.00;;;;;;;;4980540;28;45448;-81
2022/05/07 02:16:12;;;;;;;;;13.00;9.67;;;;;;;;4984634;28;45382;-81
2022/05/07 02:18:38;;;;;;;;;16.00;15.00;;;;;;;;4982793;28;45522;-82
2022/05/07 02:21:03;;;;;;;;;17.67;16.00;;;;;;;;4964141;28;45317;-81
2022/05/07 02:23:28;;;;;;;;;18.33;14.00;;;;;;;;4962863;28;45666;-80
2022/05/07 02:25:54;;;;;;;;;12.67;11.67;;;;;;;;4962127;28;45630;-81
2022/05/07 02:28:19;;;;;;;;;11.33;10.00;;;;;;;;4963743;28;45567;-80
2022/05/07 02:30:44;;;;;;;;;14.00;9.67;;;;;;;;4962731;28;45760;-81
2022/05/07 02:33:10;;;;;;;;;18.00;14.67;;;;;;;;4963133;28;46062;-81
2022/05/07 02:35:35;;;;;;;;;19.00;15.00;;;;;;;;4963017;28;45763;-82
2022/05/07 02:38:00;;;;;;;;;11.33;10.67;;;;;;;;4977507;28;45349;-79
2022/05/07 02:40:26;;;;;;;;;17.33;15.67;;;;;;;;4979053;28;45803;-79
2022/05/07 02:42:51;;;;;;;;;12.00;11.67;;;;;;;;4976163;28;45434;-81
2022/05/07 02:45:16;;;;;;;;;14.00;11.00;;;;;;;;4960239;28;47957;-82
2022/05/07 02:47:42;;;;;;;;;16.67;16.67;;;;;;;;4978744;28;45635;-81
2022/05/07 02:50:08;;;;;;;;;14.00;13.00;;;;;;;;4962746;28;45303;-82
2022/05/07 02:52:34;;;;;;;;;20.67;17.33;;;;;;;;4962283;28;47517;-82
2022/05/07 02:55:00;;;;;;;;;15.00;13.33;;;;;;;;4966763;28;47247;-82
2022/05/07 02:57:26;;;;;;;;;21.33;17.00;;;;;;;;4959500;28;45871;-83
2022/05/07 02:59:51;;;;;;;;;15.33;12.67;;;;;;;;4958055;28;45446;-75
2022/05/07 03:02:16;;;;;;;;;15.00;13.67;;;;;;;;4973371;28;45750;-77
2022/05/07 03:04:42;;;;;;;;;15.33;12.67;;;;;;;;4974005;28;46201;-81
2022/05/07 03:07:10;;;;;;;;;14.67;11.67;;;;;;;;4958622;28;45743;-83
2022/05/07 03:09:38;;;;;;;;;14.33;13.33;;;;;;;;4977182;28;45857;-82
2022/05/07 03:12:07;;;;;;;;;9.67;9.00;;;;;;;;4961117;28;45442;-83
2022/05/07 03:14:32;;;;;;;;;15.67;12.00;;;;;;;;4958708;28;47130;-80
2022/05/07 03:16:58;;;;;;;;;16.00;14.33;;;;;;;;4976789;28;45482;-80
2022/05/07 03:19:24;;;;;;;;;16.00;12.33;;;;;;;;4971744;28;45204;-78
2022/05/07 03:21:49;;;;;;;;;14.67;13.67;;;;;;;;4969466;28;45330;-78
2022/05/07 03:24:14;;;;;;;;;13.67;11.33;;;;;;;;4943784;28;48145;-83
2022/05/07 03:26:39;;;;;;;;;12.00;11.00;;;;;;;;4951113;28;45634;-84
2022/05/07 03:29:05;;;;;;;;;14.33;13.00;;;;;;;;4965232;28;45415;-81
2022/05/07 03:31:30;;;;;;;;;10.67;10.33;;;;;;;;4949507;28;45861;-82
2022/05/07 03:33:56;;;;;;;;;10.00;10.00;;;;;;;;4951046;28;45485;-82
2022/05/07 03:36:21;;;;;;;;;15.00;13.33;;;;;;;;4937867;28;45522;-78
2022/05/07 03:38:46;;;;;;;;;16.00;14.67;;;;;;;;4961228;28;45446;-78
2022/05/07 03:41:12;;;;;;;;;14.67;13.00;;;;;;;;4947252;28;45612;-79
2022/05/07 03:43:37;;;;;;;;;12.33;10.67;;;;;;;;4968776;28;45624;-78
2022/05/07 03:46:04;;;;;;;;;16.67;13.33;;;;;;;;4970842;28;44771;-79
2022/05/07 03:48:29;;;;;;;;;15.33;13.00;;;;;;;;4969956;28;45789;-78
2022/05/07 03:50:55;;;;;;;;;15.67;14.00;;;;;;;;4947358;28;45612;-79
2022/05/07 03:53:29;;;;;;;;;14.00;9.67;;;;;;;;4957242;28;47353;-83
2022/05/07 03:55:55;;;;;;;;;14.33;12.67;;;;;;;;4976992;28;44917;-78
2022/05/07 03:58:20;;;;;;;;;23.67;18.67;;;;;;;;4957652;28;44789;-79
2022/05/07 04:00:45;;;;;;;;;16.00;13.00;;;;;;;;4986441;28;45716;-81
2022/05/07 04:03:11;;;;;;;;;21.00;16.67;;;;;;;;4981677;28;45478;-82
2022/05/07 04:05:37;;;;;;;;;14.00;13.00;;;;;;;;4964137;28;44879;-81
2022/05/07 04:08:02;;;;;;;;;11.33;11.00;;;;;;;;4978217;28;45417;-82
2022/05/07 04:10:28;;;;;;;;;19.67;15.00;;;;;;;;4965799;28;45448;-82
2022/05/07 04:12:54;;;;;;;;;15.00;15.00;;;;;;;;4972127;28;46042;-80
2022/05/07 04:15:20;;;;;;;;;18.67;15.33;;;;;;;;4946596;28;45396;-79
2022/05/07 04:17:45;;;;;;;;;14.67;13.67;;;;;;;;4946665;28;45376;-78
2022/05/07 04:20:11;;;;;;;;;13.00;11.33;;;;;;;;4947960;28;46070;-79
2022/05/07 04:22:36;;;;;;;;;12.67;11.00;;;;;;;;4961545;28;46449;-78
2022/05/07 04:25:02;;;;;;;;;18.67;15.33;;;;;;;;4955907;28;45417;-77
2022/05/07 04:27:27;;;;;;;;;18.33;15.67;;;;;;;;4946546;28;45374;-79
2022/05/07 04:29:53;;;;;;;;;17.67;10.67;;;;;;;;4961457;28;45595;-78
2022/05/07 04:32:18;;;;;;;;;19.67;18.00;;;;;;;;4959845;28;46282;-77
2022/05/07 04:34:43;;;;;;;;;17.33;15.67;;;;;;;;4959304;28;45547;-79
2022/05/07 04:37:08;;;;;;;;;21.33;14.33;;;;;;;;4950727;28;45967;-79
2022/05/07 04:39:34;;;;;;;;;20.00;15.67;;;;;;;;4948148;28;45803;-79
2022/05/07 04:41:59;;;;;;;;;18.33;17.33;;;;;;;;4970632;28;45556;-77
2022/05/07 04:44:25;;;;;;;;;13.33;12.00;;;;;;;;4955554;28;45533;-77
2022/05/07 04:46:50;;;;;;;;;23.00;19.00;;;;;;;;4957291;28;45735;-79
2022/05/07 04:49:19;;;;;;;;;21.33;16.00;;;;;;;;4957955;28;45687;-79
2022/05/07 04:51:45;;;;;;;;;22.67;20.67;;;;;;;;4964452;28;45741;-81
2022/05/07 04:54:10;;;;;;;;;21.67;17.00;;;;;;;;4971758;28;45844;-80
2022/05/07 04:56:36;;;;;;;;;19.67;14.33;;;;;;;;4946033;28;45580;-78
2022/05/07 04:59:01;;;;;;;;;14.00;11.00;;;;;;;;4958504;28;45448;-78
2022/05/07 05:01:26;;;;;;;;;18.33;15.67;;;;;;;;4965244;28;46390;-81
2022/05/07 05:03:51;;;;;;;;;20.00;15.33;;;;;;;;4968050;28;45580;-82
2022/05/07 05:06:17;;;;;;;;;17.33;13.67;;;;;;;;4965836;28;45683;-82
2022/05/07 05:08:42;;;;;;;;;21.00;16.33;;;;;;;;4966988;28;45845;-82
2022/05/07 05:11:09;;;;;;;;;19.33;16.00;;;;;;;;4957360;28;46987;-85
2022/05/07 05:13:34;;;;;;;;;18.67;16.67;;;;;;;;4948025;28;45556;-82
2022/05/07 05:16:05;;;;;;;;;16.33;15.67;;;;;;;;4950450;28;45315;-85
2022/05/07 05:19:16;;;;;;;;;;;;;;;;;;;;;
2022/05/07 05:21:41;;;;;;;;;17.33;17.33;;;;;;;;4973418;28;45327;-87
2022/05/07 05:30:42;;;;;;;;;16.33;15.67;;;;;;;;4889192;29;45945;-83
2022/05/07 05:33:08;;;;;;;;;20.67;16.00;;;;;;;;4892041;28;46300;-81
2022/05/07 05:35:33;;;;;;;;;18.00;14.67;;;;;;;;4881463;29;45320;-82
2022/05/07 05:37:58;;;;;;;;;18.67;16.33;;;;;;;;4893011;28;45503;-76
2022/05/07 05:40:24;;;;;;;;;23.67;17.00;;;;;;;;4974030;28;45658;-80
2022/05/07 05:42:49;;;;;;;;;15.67;15.67;;;;;;;;4967810;28;46154;-78
2022/05/07 05:45:14;;;;;;;;;15.00;14.33;;;;;;;;4955876;28;45968;-80
2022/05/07 05:47:40;;;;;;;;;21.00;14.67;;;;;;;;4948537;28;45744;-80
2022/05/07 05:50:05;;;;;;;;;21.33;16.00;;;;;;;;4951360;28;46657;-75
2022/05/07 05:52:32;;;;;;;;;16.00;14.67;;;;;;;;4946531;28;47170;-78
2022/05/07 05:54:57;;;;;;;;;16.00;16.00;;;;;;;;4948226;28;45776;-74
2022/05/07 05:57:22;;;;;;;;;20.00;17.67;;;;;;;;4953169;28;45651;-81
2022/05/07 05:59:47;;;;;;;;;21.67;18.67;;;;;;;;4951709;28;45511;-79
2022/05/07 06:02:17;;;;;;;;;16.67;14.67;;;;;;;;4953870;28;45950;-75
2022/05/07 06:04:43;;;;;;;;;21.00;17.33;;;;;;;;4925901;28;45591;-80
2022/05/07 06:07:08;;;;;;;;;18.33;14.33;;;;;;;;4924363;28;45958;-80
2022/05/07 06:09:51;;;;;;;;;19.67;13.67;;;;;;;;4944501;28;45863;-81
2022/05/07 06:12:17;;;;;;;;;22.67;16.67;;;;;;;;4943568;28;45872;-81
2022/05/07 06:14:46;;;;;;;;;19.33;15.00;;;;;;;;4924767;28;45459;-81
2022/05/07 06:17:13;;;;;;;;;16.33;15.67;;;;;;;;4938686;28;45809;-82
2022/05/07 06:19:42;;;;;;;;;21.00;15.67;;;;;;;;4945771;28;45796;-84
2022/05/07 06:22:08;;;;;;;;;14.67;12.00;;;;;;;;4936877;28;46433;-82
2022/05/07 06:27:31;;;;;;;;;15.33;14.33;;;;;;;;4954251;28;45719;-81
2022/05/07 06:29:59;;;;;;;;;15.67;14.67;;;;;;;;4949585;28;45799;-83
2022/05/07 06:32:38;;;;;;;;;15.00;15.00;;;;;;;;4920573;28;46751;-83
2022/05/07 06:35:10;;;;;;;;;22.33;18.67;;;;;;;;4936300;28;45583;-82
2022/05/07 06:37:40;;;;;;;;;21.00;17.67;;;;;;;;4938970;28;45708;-82
2022/05/07 06:40:06;;;;;;;;;17.00;16.00;;;;;;;;4943107;28;45973;-81
2022/05/07 06:42:40;;;;;;;;;16.67;14.00;;;;;;;;4957262;28;46413;-80
2022/05/07 06:45:57;;;;;;;;;;;;;;;;;;;;;
2022/05/07 06:48:23;;;;;;;;;17.33;15.00;;;;;;;;4846047;29;69372;-79
2022/05/07 06:50:59;;;;;;;;;19.00;17.67;;;;;;;;4924795;28;45584;-80
2022/05/07 06:53:25;;;;;;;;;18.00;16.00;;;;;;;;4927615;28;48231;-80
2022/05/07 06:55:58;;;;;;;;;19.33;15.00;;;;;;;;4949309;28;45920;-80
2022/05/07 06:58:26;;;;;;;;;19.67;15.33;;;;;;;;4940469;28;45869;-81
2022/05/07 07:00:54;;;;;;;;;19.33;16.67;;;;;;;;4927929;28;45938;-81
2022/05/07 07:03:23;;;;;;;;;18.00;16.67;;;;;;;;4941007;28;47552;-79
2022/05/07 07:05:50;;;;;;;;;18.67;16.00;;;;;;;;4946457;28;45520;-81
2022/05/07 07:08:57;;;;;;;;;19.33;16.00;;;;;;;;4950641;28;45901;-82
2022/05/07 07:12:09;;;;;;;;;18.67;16.00;;;;;;;;4871327;29;45553;-82
2022/05/07 07:14:43;;;;;;;;;19.33;15.00;;;;;;;;4860593;29;46489;-83
2022/05/07 07:17:18;;;;;;;;;16.00;14.00;;;;;;;;4861059;29;45828;-83
2022/05/07 07:19:50;;;;;;;;;15.67;14.33;;;;;;;;4918142;28;45881;-82
2022/05/07 07:22:27;;;;;;;;;16.67;15.67;;;;;;;;4946193;28;45916;-85
2022/05/07 07:24:58;;;;;;;;;13.33;12.33;;;;;;;;4934976;28;45723;-80
2022/05/07 07:27:24;;;;;;;;;14.67;14.67;;;;;;;;4953579;28;46026;-81
2022/05/07 07:29:49;;;;;;;;;15.67;14.00;;;;;;;;4947761;28;45855;-81
2022/05/07 07:32:15;;;;;;;;;14.33;11.00;;;;;;;;4931960;28;45609;-80
2022/05/07 07:34:40;;;;;;;;;16.67;12.33;;;;;;;;4948064;28;46027;-80
2022/05/07 07:37:09;;;;;;;;;14.00;11.00;;;;;;;;4948916;28;45798;-81
2022/05/07 07:39:42;;;;;;;;;13.00;10.67;;;;;;;;4943824;28;45805;-80
2022/05/07 07:42:23;;;;;;;;;11.67;11.67;;;;;;;;4948579;28;45851;-83
2022/05/07 07:47:56;;;;;;;;;14.67;12.00;;;;;;;;4942926;28;46443;-82
2022/05/07 07:50:19;;;;;;;;;16.00;14.00;;;;;;;;4941089;28;45426;-81
2022/05/07 07:52:44;;;;;;;;;10.33;10.33;;;;;;;;4940401;28;45933;-78
2022/05/07 07:55:14;;;;;;;;;16.00;11.67;;;;;;;;4935742;28;46102;-81
2022/05/07 07:58:16;;;;;;;;;33.67;26.00;;;;;;;;4932247;28;45630;-79
2022/05/07 08:00:55;;;;;;;;;12.00;11.00;;;;;;;;4848318;29;45650;-81
2022/05/07 08:03:20;;;;;;;;;15.33;10.67;;;;;;;;4877560;29;45804;-77
2022/05/07 08:05:47;;;;;;;;;15.67;11.33;;;;;;;;4893887;28;46191;-76
2022/05/07 08:13:54;;;;;;;;;10.33;10.33;;;;;;;;4920124;28;45494;-80
2022/05/07 08:16:20;;;;;;;;;12.00;11.50;;;;;;;;4906740;28;48489;-82
2022/05/07 08:18:46;;;;;;;;;12.33;11.33;;;;;;;;4908077;28;45801;-82
2022/05/07 08:21:12;;;;;;;;;13.33;11.67;;;;;;;;4904323;28;45943;-79
2022/05/07 08:23:51;;;;;;;;;13.00;11.00;;;;;;;;4911401;28;45571;-80
2022/05/07 08:26:35;;;;;;;;;13.00;10.67;;;;;;;;4925098;28;45865;-82
2022/05/07 08:29:06;;;;;;;;;14.67;11.67;;;;;;;;4922889;28;46661;-83
2022/05/07 08:31:37;;;;;;;;;10.00;10.00;;;;;;;;4913841;28;45667;-83
2022/05/07 08:34:30;;;;;;;;;11.00;10.67;;;;;;;;4911286;28;46758;-82
2022/05/07 08:37:00;;;;;;;;;9.33;7.67;;;;;;;;4928995;28;46595;-82
2022/05/07 08:42:22;;;;;;;;;8.00;6.33;;;;;;;;4930393;28;45477;-81
2022/05/07 08:44:47;;;;;;;;;12.67;10.00;;;;;;;;4914912;28;45460;-81
2022/05/07 08:47:13;;;;;;;;;9.00;7.50;;;;;;;;4898918;28;46233;-76
2022/05/07 08:49:39;;;;;;;;;11.67;8.67;;;;;;;;4897270;28;45887;-76
2022/05/07 08:52:04;;;;;;;;;7.25;7.25;;;;;;;;4896901;28;45898;-75
2022/05/07 08:54:30;;;;;;;;;10.25;7.50;;;;;;;;4919586;28;45455;-76
2022/05/07 08:56:56;;;;;;;;;7.25;6.00;;;;;;;;4935113;28;45776;-75
2022/05/07 08:59:22;;;;;;;;;9.00;7.00;;;;;;;;4937860;28;45883;-76
2022/05/07 09:01:47;;;;;;;;;10.25;10.00;;;;;;;;4941697;28;45327;-76
2022/05/07 09:04:13;;;;;;;;;7.75;6.75;;;;;;;;4937718;28;45924;-82
2022/05/07 09:06:39;;;;;;;;;8.00;6.50;;;;;;;;4954885;28;47529;-79
2022/05/07 09:09:06;;;;;;;;;5.00;4.25;;;;;;;;4956377;28;45361;-83
2022/05/07 09:11:45;;;;;;;;;6.25;6.25;;;;;;;;4950337;28;45890;-81
2022/05/07 09:14:11;;;;;;;;;6.00;6.00;;;;;;;;4925968;28;46086;-81
2022/05/07 09:16:40;;;;;;;;;6.00;4.75;;;;;;;;4930799;28;46938;-83
2022/05/07 09:19:31;;;;;;;;;7.75;6.75;;;;;;;;4937984;28;45671;-86
2022/05/07 09:22:05;;;;;;;;;9.00;5.00;;;;;;;;4943202;28;45917;-81
2022/05/07 09:24:31;;;;;;;;;6.25;6.25;;;;;;;;4964290;28;45532;-81
2022/05/07 09:27:02;;;;;;;;;4.25;4.25;;;;;;;;4959199;28;45405;-83
2022/05/07 09:29:28;;;;;;;;;5.75;5.50;;;;;;;;4941637;28;45867;-80
2022/05/07 09:31:53;;;;;;;;;7.00;5.75;;;;;;;;4950433;28;45149;-80
2022/05/07 09:37:18;;;;;;;;;7.75;7.00;;;;;;;;4962939;28;45523;-81
2022/05/07 09:39:50;;;;;;;;;5.75;4.25;;;;;;;;4955773;28;45805;-83
2022/05/07 09:42:19;;;;;;;;;3.50;2.50;;;;;;;;4956024;28;45699;-82
2022/05/07 09:44:45;;;;;;;;;5.75;5.00;;;;;;;;4956197;28;45896;-81
2022/05/07 09:47:12;;;;;;;;;8.00;7.00;;;;;;;;4955547;28;47372;-82
2022/05/07 09:57:30;;;;;;;;;3.50;3.50;;;;;;;;4976992;28;45484;-83
2022/05/07 09:58:12;;;;;;;;;6.00;5.00;;;;;;;;4976378;28;45910;-81
2022/05/07 10:00:41;;;;;;;;;5.00;5.00;;;;;;;;4976429;28;45465;-83
2022/05/07 10:03:15;;;;;;;;;5.00;4.25;;;;;;;;4957601;28;45449;-84
2022/05/07 10:05:54;;;;;;;;;2.25;1.75;;;;;;;;4955697;28;45668;-82
2022/05/07 10:08:39;;;;;;;;;5.75;5.75;;;;;;;;4954979;28;47546;-81
2022/05/07 10:11:04;;;;;;;;;8.00;6.50;;;;;;;;4958232;28;45555;-85
2022/05/07 10:13:30;;;;;;;;;7.00;6.00;;;;;;;;4957008;28;45300;-83
2022/05/07 10:16:00;;;;;;;;;10.50;10.50;;;;;;;;4956254;28;45445;-82
2022/05/07 10:18:32;;;;;;;;;4.25;4.25;;;;;;;;4939151;28;46459;-80
2022/05/07 10:20:58;;;;;;;;;6.25;6.25;;;;;;;;4941621;28;45797;-80
2022/05/07 10:23:30;;;;;;;;;5.00;5.00;;;;;;;;4956329;28;45439;-81
2022/05/07 10:25:57;;;;;;;;;5.00;5.00;;;;;;;;4957257;28;46147;-81
2022/05/07 10:28:22;;;;;;;;;8.25;7.00;;;;;;;;4956669;28;46179;-83
2022/05/07 10:30:51;;;;;;;;;9.25;7.50;;;;;;;;4953556;28;45413;-82
2022/05/07 10:33:18;;;;;;;;;9.50;8.00;;;;;;;;4955286;28;45801;-82
2022/05/07 10:35:53;;;;;;;;;6.25;6.25;;;;;;;;4937659;28;45824;-82
2022/05/07 10:38:32;;;;;;;;;5.50;4.25;;;;;;;;4954267;28;45643;-82
2022/05/07 10:41:29;;;;;;;;;7.00;4.25;;;;;;;;4974808;28;45819;-84
2022/05/07 10:43:58;;;;;;;;;5.50;5.50;;;;;;;;4945703;28;45805;-81
2022/05/07 10:46:28;;;;;;;;;4.00;4.00;;;;;;;;4963956;28;45773;-82
2022/05/07 10:49:04;;;;;;;;;8.75;7.75;;;;;;;;4956318;28;45449;-82
2022/05/07 10:51:33;;;;;;;;;8.25;7.75;;;;;;;;4955421;28;45488;-83
2022/05/07 10:54:02;;;;;;;;;9.00;7.25;;;;;;;;4938643;28;45608;-82
2022/05/07 10:56:32;;;;;;;;;7.25;6.25;;;;;;;;4955647;28;45854;-83
2022/05/07 10:58:58;;;;;;;;;5.00;4.50;;;;;;;;4938609;28;48223;-83
2022/05/07 11:01:25;;;;;;;;;8.75;6.75;;;;;;;;4938979;28;45430;-83
2022/05/07 11:04:18;;;;;;;;;6.75;6.75;;;;;;;;4956051;28;45492;-85
2022/05/07 11:06:51;;;;;;;;;6.25;5.25;;;;;;;;4957441;28;46081;-81
2022/05/07 11:09:17;;;;;;;;;6.50;6.50;;;;;;;;4940908;28;45672;-85
2022/05/07 11:11:56;;;;;;;;;4.50;4.50;;;;;;;;4959986;28;45744;-83
2022/05/07 11:14:26;;;;;;;;;10.75;7.50;;;;;;;;4959933;28;45457;-81
2022/05/07 11:16:53;;;;;;;;;9.25;6.00;;;;;;;;4961398;28;45331;-82
2022/05/07 11:19:28;;;;;;;;;8.50;5.50;;;;;;;;4980057;28;47856;-82
2022/05/07 11:21:55;;;;;;;;;5.00;5.00;;;;;;;;4979303;28;45103;-85
2022/05/07 11:24:21;;;;;;;;;6.75;6.75;;;;;;;;4970515;28;45291;-83
2022/05/07 11:27:00;;;;;;;;;6.67;5.33;;;;;;;;4962165;28;45897;-84
2022/05/07 11:29:29;;;;;;;;;5.50;5.50;;;;;;;;4958481;28;47304;-81
2022/05/07 11:32:07;;;;;;;;;6.50;5.25;;;;;;;;4937092;28;45410;-80
2022/05/07 11:34:32;;;;;;;;;9.75;7.50;;;;;;;;4937703;28;45825;-83
2022/05/07 11:37:13;;;;;;;;;6.75;6.00;;;;;;;;4937668;28;45421;-82
2022/05/07 11:39:51;;;;;;;;;5.50;5.00;;;;;;;;4937821;28;46424;-80
2022/05/07 11:42:28;;;;;;;;;6.00;6.00;;;;;;;;4934535;28;45477;-82
2022/05/07 11:45:27;;;;;;;;;7.25;6.25;;;;;;;;4934661;28;45644;-81
2022/05/07 11:48:03;;;;;;;;;5.00;4.25;;;;;;;;4934706;28;47559;-83
2022/05/07 11:50:29;;;;;;;;;6.50;6.50;;;;;;;;4938073;28;45402;-81
2022/05/07 11:52:58;;;;;;;;;8.00;7.00;;;;;;;;4935317;28;45348;-83
2022/05/07 11:55:55;;;;;;;;;18.67;14.33;;;;;;;;4923102;28;45448;-83
2022/05/07 11:58:25;;;;;;;;;6.75;5.50;;;;;;;;4869150;28;45656;-82
2022/05/07 12:01:03;;;;;;;;;9.00;7.33;;;;;;;;4918935;28;47812;-84
2022/05/07 12:03:33;;;;;;;;;5.75;5.75;;;;;;;;4930287;28;45694;-84
2022/05/07 12:06:00;;;;;;;;;5.75;5.00;;;;;;;;4940154;28;45444;-85
2022/05/07 12:11:23;;;;;;;;;6.00;6.00;;;;;;;;4941841;28;45521;-84
2022/05/07 12:13:52;;;;;;;;;6.33;6.33;;;;;;;;4938399;28;45966;-82
2022/05/07 12:19:03;;;;;;;;;5.67;3.00;;;;;;;;4901141;29;45547;-83
2022/05/07 12:32:44;;;;;;;;;6.67;5.00;;;;;;;;4888420;29;45440;-82
2022/05/07 12:35:16;;;;;;;;;10.00;7.00;;;;;;;;4898959;28;45620;-82
2022/05/07 12:38:03;;;;;;;;;5.33;5.33;;;;;;;;4888726;29;45758;-83
2022/05/07 12:40:28;;;;;;;;;5.00;5.00;;;;;;;;4903260;29;45884;-81
2022/05/07 12:42:58;;;;;;;;;6.00;6.00;;;;;;;;4905948;29;45395;-81
2022/05/07 12:45:27;;;;;;;;;10.00;5.33;;;;;;;;4902514;29;45805;-81
2022/05/07 12:47:59;;;;;;;;;7.33;4.67;;;;;;;;4903132;28;45794;-83
2022/05/07 12:50:34;;;;;;;;;6.67;5.00;;;;;;;;4903678;28;45428;-81
2022/05/07 12:53:00;;;;;;;;;5.33;4.00;;;;;;;;4908461;29;45458;-80
2022/05/07 12:55:29;;;;;;;;;3.50;3.50;;;;;;;;4907820;28;45505;-83
2022/05/07 12:58:03;;;;;;;;;5.33;4.00;;;;;;;;4906849;28;45512;-80
2022/05/07 13:00:52;;;;;;;;;3.00;3.00;;;;;;;;4908438;28;46183;-84
2022/05/07 13:03:37;;;;;;;;;3.33;3.00;;;;;;;;4905247;29;45360;-82
2022/05/07 13:06:07;;;;;;;;;3.00;2.00;;;;;;;;4942141;28;45363;-82
2022/05/07 13:08:33;;;;;;;;;2.00;2.00;;;;;;;;4946813;28;45516;-82
2022/05/07 13:11:24;;;;;;;;;1.50;1.50;;;;;;;;4947423;28;45710;-82
2022/05/07 13:13:59;;;;;;;;;3.00;2.67;;;;;;;;4945563;28;47357;-81
2022/05/07 13:16:45;;;;;;;;;4.00;4.00;;;;;;;;4950631;28;45502;-82
2022/05/07 13:29:39;;;;;;;;;28.67;17.00;;;;;;;;4900929;29;45716;-77
2022/05/07 13:35:43;;;;;;;;;3.00;3.00;;;;;;;;4947503;28;44847;-79
2022/05/07 13:38:58;;;;;;;;;4.00;4.00;;;;;;;;4946567;28;45229;-79
2022/05/07 13:44:36;;;;;;;;;3.67;3.67;;;;;;;;4867617;29;45512;-79
2022/05/07 13:47:38;;;;;;;;;5.67;5.00;;;;;;;;4851353;29;45684;-78
2022/05/07 13:50:19;;;;;;;;;;;;;;;;;;;;;
2022/05/07 13:52:49;;;;;;;;;3.00;3.00;;;;;;;;4856657;29;72427;-81
2022/05/07 13:55:50;;;;;;;;;5.00;3.67;;;;;;;;4918788;28;45070;-80
2022/05/07 13:58:44;;;;;;;;;4.33;3.33;;;;;;;;4866890;29;45410;-80
2022/05/07 14:01:28;;;;;;;;;4.00;3.00;;;;;;;;4898057;29;46293;-80
2022/05/07 14:03:56;;;;;;;;;4.00;2.67;;;;;;;;4898298;29;45155;-79
2022/05/07 14:06:39;;;;;;;;;3.00;3.00;;;;;;;;4895171;29;45201;-79
2022/05/07 14:09:14;;;;;;;;;3.00;3.00;;;;;;;;4886863;29;45619;-78
2022/05/07 14:12:07;;;;;;;;;;;;;;;;;;;;;
2022/05/07 14:14:36;;;;;;;;;2.67;2.67;;;;;;;;4896969;28;71998;-78
2022/05/07 14:17:32;;;;;;;;;3.00;3.00;;;;;;;;4898004;29;45458;-77
2022/05/07 14:20:02;;;;;;;;;2.00;2.00;;;;;;;;4901817;28;45901;-77
2022/05/07 14:22:36;;;;;;;;;4.00;2.67;;;;;;;;4915215;28;45576;-80
2022/05/07 14:25:22;;;;;;;;;4.67;2.00;;;;;;;;4917456;28;45435;-80
2022/05/07 14:31:06;;;;;;;;;;;;;;;;;;;;;
2022/05/07 14:33:47;;;;;;;;;3.00;3.00;;;;;;;;4938428;28;74760;-78
2022/05/07 14:58:47;;;;;;;;;;;;;;;;;;;;;
2022/05/07 15:20:32;;;;;;;;;;;;;;;;;;;;;
2022/05/07 15:26:33;;;;;;;;;;;;;;;;;;;;;
2022/05/07 16:10:34;;;;;;;;;;;;;;;;;;;;;
2022/05/07 16:13:21;;;;;;;;;1.25;1.25;;;;;;;;4787314;29;45458;-78
2022/05/07 16:15:57;;;;;;;;;2.50;1.75;;;;;;;;4803459;29;45590;-80
2022/05/07 16:19:04;;;;;;;;;3.25;2.25;;;;;;;;4872786;28;45587;-78
2022/05/07 16:21:50;;;;;;;;;2.00;2.00;;;;;;;;4843134;29;45463;-78
2022/05/07 16:30:14;;;;;;;;;5.00;5.00;;;;;;;;4888201;28;45574;-79
2022/05/07 16:32:55;;;;;;;;;4.50;2.75;;;;;;;;4917758;28;45978;-79
2022/05/07 16:41:58;;;;;;;;;4.33;3.00;;;;;;;;4882202;28;45559;-78
2022/05/07 16:54:39;;;;;;;;;;;;;;;;;;;;;
2022/05/07 17:03:42;;;;;;;;;2.75;2.75;;;;;;;;4922730;28;45555;-80
2022/05/07 17:06:07;;;;;;;;;2.00;2.00;;;;;;;;4925669;28;45583;-76
2022/05/07 17:08:33;;;;;;;;;2.00;2.00;;;;;;;;4930156;28;47336;-76
2022/05/07 17:10:59;;;;;;;;;3.00;2.00;;;;;;;;4930821;28;46339;-77
2022/05/07 17:13:46;;;;;;;;;2.75;2.75;;;;;;;;4932890;28;45756;-79
2022/05/07 17:16:33;;;;;;;;;1.75;1.75;;;;;;;;4920952;28;45673;-77
2022/05/07 17:18:59;;;;;;;;;1.25;1.25;;;;;;;;4931869;28;45648;-76
2022/05/07 17:21:24;;;;;;;;;2.50;1.00;;;;;;;;4929659;28;45679;-78
2022/05/07 17:23:49;;;;;;;;;3.00;1.00;;;;;;;;4924132;28;45667;-76
2022/05/07 17:26:17;;;;;;;;;0.75;0.75;;;;;;;;4909398;28;45672;-76
2022/05/07 17:28:43;;;;;;;;;3.00;1.75;;;;;;;;4910688;28;45945;-78
2022/05/07 17:31:08;;;;;;;;;6.00;3.33;;;;;;;;4920369;28;46392;-76
2022/05/07 17:33:36;;;;;;;;;1.00;1.00;;;;;;;;4924093;28;45280;-77
2022/05/07 17:36:06;;;;;;;;;2.00;2.00;;;;;;;;4921770;28;45461;-77
2022/05/07 17:38:32;;;;;;;;;3.00;3.00;;;;;;;;4924941;28;45852;-75
2022/05/07 17:41:00;;;;;;;;;1.00;1.00;;;;;;;;4925545;28;45573;-78
2022/05/07 17:43:25;;;;;;;;;2.00;1.67;;;;;;;;4930181;28;45848;-76
2022/05/07 17:45:51;;;;;;;;;2.67;1.00;;;;;;;;4928252;28;45667;-77
2022/05/07 17:51:24;;;;;;;;;5.00;2.00;;;;;;;;4925841;28;45694;-76
2022/05/07 17:53:50;;;;;;;;;3.00;1.25;;;;;;;;4921821;28;45749;-77
2022/05/07 17:56:19;;;;;;;;;1.50;1.50;;;;;;;;4912517;28;45747;-76
2022/05/07 18:01:44;;;;;;;;;1.67;1.67;;;;;;;;4915075;28;46515;-78
2022/05/07 18:07:31;;;;;;;;;;;;;;;;;;;;;
2022/05/07 18:10:36;;;;;;;;;;;;;;;;;;;;;
2022/05/07 18:23:17;;;;;;;;;3.00;3.00;;;;;;;;4838725;29;44918;-81
2022/05/07 18:25:42;;;;;;;;;2.67;2.67;;;;;;;;4845763;29;45507;-83
2022/05/07 18:31:18;;;;;;;;;2.00;2.00;;;;;;;;4822423;28;45941;-83
2022/05/07 18:33:59;;;;;;;;;2.00;2.00;;;;;;;;4930298;28;45616;-82